Time;durP1;ratioP1;P1;durP2;ratioP2;P2;SDS_P1;SDS_P2;PMS_P1;PMS_P2;Temp;Humidity;BMP_temperature;BMP_pressure;BME280_temperature;BME280_humidity;BME280_pressure;Samples;Min_cycle;Max_cycle;Signal;HPM_P1;HPM_P2
2023/12/14 00:01:36;;;;;;;1.57;1.27;;;22.80;63.40;;;;;;4941958;28;20467;-84
2023/12/14 00:04:05;;;;;;;1.20;1.10;;;22.80;63.40;;;;;;4951131;28;20518;-84
2023/12/14 00:06:33;;;;;;;2.20;1.60;;;22.80;63.40;;;;;;4946603;28;20542;-83
2023/12/14 00:09:02;;;;;;;1.43;1.27;;;22.80;63.40;;;;;;4946589;28;20546;-83
2023/12/14 00:11:30;;;;;;;1.73;1.37;;;22.80;63.40;;;;;;4950590;28;20956;-83
2023/12/14 00:13:58;;;;;;;1.40;1.30;;;22.80;63.40;;;;;;4948297;29;20476;-87
2023/12/14 00:16:28;;;;;;;1.20;1.10;;;22.80;63.40;;;;;;4953028;28;20452;-89
2023/12/14 00:18:56;;;;;;;1.17;1.07;;;22.80;63.40;;;;;;4953903;28;20948;-83
2023/12/14 00:21:24;;;;;;;1.27;1.17;;;22.80;63.40;;;;;;4953622;28;21275;-83
2023/12/14 00:23:53;;;;;;;1.30;1.20;;;22.80;63.40;;;;;;4954118;28;20952;-85
2023/12/14 00:26:21;;;;;;;1.30;1.20;;;22.80;63.40;;;;;;4957734;28;20477;-83
2023/12/14 00:28:49;;;;;;;1.43;1.33;;;22.80;63.40;;;;;;4944009;28;20964;-83
2023/12/14 00:31:18;;;;;;;1.03;0.93;;;22.80;63.40;;;;;;4943582;28;20565;-85
2023/12/14 00:33:47;;;;;;;1.00;1.00;;;22.70;63.40;;;;;;4952526;28;20490;-83
2023/12/14 00:36:20;;;;;;;1.07;1.07;;;22.70;63.40;;;;;;4953386;28;20464;-85
2023/12/14 00:38:48;;;;;;;1.17;1.10;;;22.70;63.40;;;;;;4943550;28;20484;-83
2023/12/14 00:41:16;;;;;;;1.30;1.20;;;22.70;63.40;;;;;;4942135;28;20467;-84
2023/12/14 00:43:44;;;;;;;1.30;1.23;;;22.70;63.40;;;;;;4942202;28;20468;-82
2023/12/14 00:46:12;;;;;;;1.10;1.00;;;22.70;63.40;;;;;;4952421;28;20467;-84
2023/12/14 00:48:41;;;;;;;1.57;1.47;;;22.70;63.40;;;;;;4950029;28;20570;-83
2023/12/14 00:51:10;;;;;;;1.30;1.20;;;22.70;63.40;;;;;;4949281;28;20562;-83
2023/12/14 00:53:38;;;;;;;1.40;1.10;;;22.70;63.40;;;;;;4933869;29;20811;-85
2023/12/14 00:56:09;;;;;;;1.50;1.40;;;22.70;63.40;;;;;;4945569;29;20541;-83
2023/12/14 00:58:37;;;;;;;2.07;1.40;;;22.70;63.40;;;;;;4946995;28;20472;-85
2023/12/14 01:01:06;;;;;;;1.30;1.20;;;22.70;63.40;;;;;;4947168;28;20467;-85
2023/12/14 01:03:34;;;;;;;0.90;0.90;;;22.70;63.40;;;;;;4951019;28;20468;-83
2023/12/14 01:06:02;;;;;;;1.00;1.00;;;22.70;63.40;;;;;;4953255;29;20440;-86
2023/12/14 01:08:32;;;;;;;1.33;1.10;;;22.70;63.40;;;;;;4949832;28;20475;-88
2023/12/14 01:11:00;;;;;;;1.40;1.30;;;22.70;63.40;;;;;;4944887;28;20561;-84
2023/12/14 01:13:28;;;;;;;1.30;1.20;;;22.70;63.40;;;;;;4971210;28;20618;-86
2023/12/14 01:15:57;;;;;;;1.40;1.00;;;22.70;63.30;;;;;;4951283;29;20913;-83
2023/12/14 01:18:25;;;;;;;1.43;1.33;;;22.70;63.30;;;;;;4959598;28;20582;-84
2023/12/14 01:20:52;;;;;;;1.30;1.00;;;22.70;63.30;;;;;;4938516;28;20487;-83
2023/12/14 01:23:21;;;;;;;1.17;1.10;;;22.60;63.40;;;;;;4938797;29;20459;-83
2023/12/14 01:25:50;;;;;;;0.90;0.90;;;22.60;63.30;;;;;;4951990;28;20574;-87
2023/12/14 01:28:18;;;;;;;0.90;0.90;;;22.60;63.30;;;;;;4952883;28;21092;-87
2023/12/14 01:30:47;;;;;;;1.00;1.00;;;22.60;63.40;;;;;;4948666;28;20562;-83
2023/12/14 01:33:15;;;;;;;0.90;0.90;;;22.60;63.40;;;;;;4937350;29;21106;-83
2023/12/14 01:35:43;;;;;;;1.37;1.03;;;22.60;63.40;;;;;;4952718;29;20463;-83
2023/12/14 01:38:12;;;;;;;1.03;1.00;;;22.60;63.40;;;;;;4952066;28;20478;-83
2023/12/14 01:40:40;;;;;;;1.40;1.30;;;22.60;63.40;;;;;;4943697;28;20978;-83
2023/12/14 01:43:10;;;;;;;1.07;1.03;;;22.60;63.40;;;;;;4970902;28;20475;-83
2023/12/14 01:45:39;;;;;;;1.10;1.10;;;22.50;63.40;;;;;;4956351;28;20471;-86
2023/12/14 01:48:07;;;;;;;1.00;0.90;;;22.60;63.40;;;;;;4954596;28;20467;-84
2023/12/14 01:50:36;;;;;;;1.00;0.90;;;22.50;63.40;;;;;;4949748;28;20465;-85
2023/12/14 01:53:04;;;;;;;1.23;0.87;;;22.50;63.40;;;;;;4945015;28;20463;-83
2023/12/14 01:55:32;;;;;;;0.77;0.77;;;22.50;63.40;;;;;;4951459;28;20491;-84
2023/12/14 01:58:01;;;;;;;0.70;0.70;;;22.50;63.40;;;;;;4951627;28;20599;-83
2023/12/14 02:00:37;;;;;;;1.00;0.90;;;22.50;63.40;;;;;;4951666;28;20470;-86
2023/12/14 02:03:05;;;;;;;0.83;0.83;;;22.50;63.40;;;;;;4947680;28;20525;-83
2023/12/14 02:05:34;;;;;;;0.80;0.80;;;22.50;63.40;;;;;;4954859;28;20475;-83
2023/12/14 02:08:02;;;;;;;1.00;1.00;;;22.50;63.40;;;;;;4950784;29;20582;-84
2023/12/14 02:10:30;;;;;;;1.60;1.50;;;22.50;63.40;;;;;;4944905;28;20467;-83
2023/12/14 02:12:59;;;;;;;1.57;1.47;;;22.50;63.40;;;;;;4969097;28;20444;-83
2023/12/14 02:15:27;;;;;;;1.00;0.90;;;22.50;63.40;;;;;;4972372;28;21274;-84
2023/12/14 02:17:56;;;;;;;0.80;0.80;;;22.50;63.40;;;;;;4955068;28;20569;-83
2023/12/14 02:20:25;;;;;;;0.70;0.70;;;22.50;63.40;;;;;;4943992;28;20468;-83
2023/12/14 02:22:55;;;;;;;0.60;0.60;;;22.50;63.40;;;;;;4939699;28;20511;-83
2023/12/14 02:25:24;;;;;;;1.20;1.10;;;22.40;63.40;;;;;;4954011;28;20462;-83
2023/12/14 02:27:52;;;;;;;1.20;1.07;;;22.50;63.40;;;;;;4950499;28;20464;-83
2023/12/14 02:30:21;;;;;;;0.90;0.90;;;22.40;63.40;;;;;;4951970;28;20557;-83
2023/12/14 02:32:49;;;;;;;1.10;0.80;;;22.40;63.40;;;;;;4954226;28;20954;-84
2023/12/14 02:35:18;;;;;;;0.87;0.87;;;22.40;63.40;;;;;;4942347;28;20454;-87
2023/12/14 02:37:46;;;;;;;1.60;0.90;;;22.40;63.40;;;;;;4951247;28;20815;-82
2023/12/14 02:40:16;;;;;;;1.10;1.00;;;22.40;63.40;;;;;;4953418;28;20484;-83
2023/12/14 02:42:44;;;;;;;1.20;1.10;;;22.40;63.40;;;;;;4963746;28;20875;-86
2023/12/14 02:45:12;;;;;;;0.80;0.80;;;22.40;63.40;;;;;;4951559;28;20499;-82
2023/12/14 02:47:40;;;;;;;1.20;1.10;;;22.40;63.40;;;;;;4954733;28;21007;-82
2023/12/14 02:50:09;;;;;;;1.20;1.10;;;22.40;63.40;;;;;;4952440;28;20549;-83
2023/12/14 02:52:38;;;;;;;1.03;0.93;;;22.40;63.40;;;;;;4946854;28;20544;-84
2023/12/14 02:55:07;;;;;;;0.93;0.90;;;22.40;63.40;;;;;;4955341;28;20462;-83
2023/12/14 02:57:36;;;;;;;1.20;1.10;;;22.40;63.40;;;;;;4955443;28;20446;-83
2023/12/14 03:00:06;;;;;;;1.13;1.03;;;22.40;63.30;;;;;;4950702;28;20490;-87
2023/12/14 03:02:35;;;;;;;0.63;0.63;;;22.40;63.30;;;;;;4957966;28;20506;-83
2023/12/14 03:05:04;;;;;;;1.00;0.90;;;22.40;63.30;;;;;;4960994;28;20461;-86
2023/12/14 03:07:34;;;;;;;1.13;1.03;;;22.40;63.30;;;;;;4952213;28;21014;-83
2023/12/14 03:10:03;;;;;;;1.03;1.00;;;22.40;63.40;;;;;;4950510;28;20469;-83
2023/12/14 03:12:32;;;;;;;1.23;1.10;;;22.40;63.40;;;;;;4951392;28;20455;-82
2023/12/14 03:15:02;;;;;;;1.03;0.90;;;22.30;63.40;;;;;;4955735;29;20502;-83
2023/12/14 03:17:30;;;;;;;0.90;0.90;;;22.40;63.40;;;;;;4948090;28;20462;-83
2023/12/14 03:20:03;;;;;;;0.93;0.93;;;22.40;63.40;;;;;;4951565;28;20817;-83
2023/12/14 03:22:32;;;;;;;0.97;0.90;;;22.40;63.40;;;;;;4961135;28;20503;-83
2023/12/14 03:25:00;;;;;;;1.47;1.17;;;22.30;63.40;;;;;;4956286;28;20474;-84
2023/12/14 03:27:29;;;;;;;1.10;1.00;;;22.30;63.40;;;;;;4957059;28;20546;-88
2023/12/14 03:29:57;;;;;;;1.97;1.10;;;22.30;63.40;;;;;;4946531;28;20465;-83
2023/12/14 03:32:26;;;;;;;0.97;0.97;;;22.30;63.40;;;;;;4955789;28;20506;-82
2023/12/14 03:34:55;;;;;;;0.93;0.90;;;22.30;63.40;;;;;;4939754;28;20463;-84
2023/12/14 03:37:23;;;;;;;1.10;1.00;;;22.30;63.40;;;;;;4951648;28;20507;-84
2023/12/14 03:39:51;;;;;;;0.80;0.80;;;22.30;63.40;;;;;;4940257;28;21349;-83
2023/12/14 03:42:22;;;;;;;0.93;0.80;;;22.30;63.40;;;;;;4952608;28;21242;-83
2023/12/14 03:44:50;;;;;;;0.70;0.70;;;22.30;63.40;;;;;;4958052;28;20459;-83
2023/12/14 03:47:19;;;;;;;0.80;0.80;;;22.30;63.40;;;;;;4954630;28;20540;-83
2023/12/14 03:49:49;;;;;;;0.70;0.70;;;22.30;63.40;;;;;;4956350;28;20467;-82
2023/12/14 03:52:17;;;;;;;0.90;0.90;;;22.30;63.40;;;;;;4955344;28;20812;-84
2023/12/14 03:54:45;;;;;;;1.40;0.80;;;22.30;63.40;;;;;;4954291;28;20457;-89
2023/12/14 03:57:14;;;;;;;0.87;0.87;;;22.30;63.40;;;;;;4954617;29;20455;-83
2023/12/14 03:59:42;;;;;;;1.23;0.87;;;22.30;63.30;;;;;;4947541;28;20538;-83
2023/12/14 04:02:10;;;;;;;0.90;0.90;;;22.30;63.30;;;;;;4944268;29;20494;-83
2023/12/14 04:04:38;;;;;;;1.00;0.90;;;22.30;63.30;;;;;;4941687;28;20547;-84
2023/12/14 04:07:08;;;;;;;1.73;0.87;;;22.30;63.30;;;;;;4953560;28;20466;-83
2023/12/14 04:09:36;;;;;;;0.50;0.50;;;22.30;63.30;;;;;;4952723;28;21046;-83
2023/12/14 04:12:05;;;;;;;0.80;0.80;;;22.30;63.30;;;;;;4949245;28;20536;-83
2023/12/14 04:14:34;;;;;;;0.60;0.60;;;22.30;63.20;;;;;;4953766;28;21000;-83
2023/12/14 04:17:02;;;;;;;0.60;0.60;;;22.30;63.20;;;;;;4954188;29;20915;-83
2023/12/14 04:19:30;;;;;;;0.67;0.67;;;22.30;63.20;;;;;;4952540;28;20511;-84
2023/12/14 04:21:58;;;;;;;0.90;0.73;;;22.30;63.20;;;;;;4951227;28;20470;-83
2023/12/14 04:24:28;;;;;;;0.60;0.60;;;22.30;63.20;;;;;;4951554;28;20463;-83
2023/12/14 04:26:56;;;;;;;0.70;0.60;;;22.30;63.20;;;;;;4950887;28;20596;-83
2023/12/14 04:29:24;;;;;;;0.87;0.87;;;22.30;63.20;;;;;;4942422;28;20483;-83
2023/12/14 04:31:53;;;;;;;0.87;0.87;;;22.30;63.20;;;;;;4947280;28;20567;-83
2023/12/14 04:34:21;;;;;;;0.77;0.73;;;22.20;63.20;;;;;;4953264;28;20469;-82
2023/12/14 04:36:50;;;;;;;0.70;0.70;;;22.20;63.20;;;;;;4952412;28;21037;-83
2023/12/14 04:39:18;;;;;;;0.63;0.63;;;22.20;63.20;;;;;;4943026;28;21030;-83
2023/12/14 04:41:48;;;;;;;0.83;0.77;;;22.20;63.20;;;;;;4951420;28;20474;-83
2023/12/14 04:44:16;;;;;;;0.60;0.60;;;22.20;63.20;;;;;;4944371;28;20476;-83
2023/12/14 04:46:44;;;;;;;0.63;0.63;;;22.20;63.20;;;;;;4956748;28;20477;-83
2023/12/14 04:49:12;;;;;;;0.60;0.60;;;22.20;63.20;;;;;;4953290;28;20455;-83
2023/12/14 04:51:41;;;;;;;1.80;0.90;;;22.20;63.20;;;;;;4955938;28;20466;-83
2023/12/14 04:54:09;;;;;;;0.97;0.97;;;22.20;63.20;;;;;;4945839;29;20857;-83
2023/12/14 04:56:38;;;;;;;0.70;0.70;;;22.20;63.20;;;;;;4945874;28;20472;-84
2023/12/14 04:59:07;;;;;;;0.80;0.80;;;22.20;63.30;;;;;;4945840;28;20459;-83
2023/12/14 05:01:36;;;;;;;0.70;0.70;;;22.20;63.30;;;;;;4950283;28;20475;-84
2023/12/14 05:04:04;;;;;;;0.80;0.80;;;22.20;63.40;;;;;;4972013;28;20435;-84
2023/12/14 05:06:33;;;;;;;0.80;0.80;;;22.20;63.40;;;;;;4955783;28;20478;-84
2023/12/14 05:09:04;;;;;;;1.07;0.97;;;22.20;63.40;;;;;;4949532;28;20521;-83
2023/12/14 05:11:32;;;;;;;1.13;1.03;;;22.20;63.40;;;;;;4947678;29;20470;-83
2023/12/14 05:14:00;;;;;;;0.80;0.73;;;22.20;63.40;;;;;;4946529;28;21049;-83
2023/12/14 05:16:30;;;;;;;0.70;0.70;;;22.30;63.40;;;;;;4948129;29;20475;-83
2023/12/14 05:18:59;;;;;;;0.97;0.80;;;22.30;63.30;;;;;;4947159;28;20550;-84
2023/12/14 05:21:27;;;;;;;0.60;0.60;;;22.40;63.20;;;;;;4944753;28;20562;-86
2023/12/14 05:23:55;;;;;;;0.70;0.70;;;22.40;63.10;;;;;;4945381;28;20959;-86
2023/12/14 05:26:24;;;;;;;0.60;0.60;;;22.50;63.10;;;;;;4948376;28;20833;-83
2023/12/14 05:28:52;;;;;;;0.60;0.60;;;22.60;62.90;;;;;;4945830;28;20487;-82
2023/12/14 05:31:20;;;;;;;0.97;0.80;;;22.60;62.60;;;;;;4943782;28;20471;-86
2023/12/14 05:33:50;;;;;;;0.73;0.73;;;22.70;62.70;;;;;;4943519;28;20543;-87
2023/12/14 05:36:18;;;;;;;0.93;0.77;;;22.70;62.20;;;;;;4949782;28;20821;-83
2023/12/14 05:38:47;;;;;;;1.30;1.00;;;22.80;62.20;;;;;;4945681;29;20474;-85
2023/12/14 05:41:15;;;;;;;0.80;0.80;;;22.80;62.20;;;;;;4942192;28;20858;-84
2023/12/14 05:43:43;;;;;;;1.70;0.53;;;22.90;62.00;;;;;;4942603;28;20456;-84
2023/12/14 05:46:21;;;;;;;0.67;0.67;;;22.90;62.30;;;;;;4945992;28;21044;-83
2023/12/14 05:48:51;;;;;;;1.03;0.60;;;23.00;62.40;;;;;;4952153;28;20463;-85
2023/12/14 05:51:30;;;;;;;1.03;0.60;;;23.00;62.30;;;;;;4942968;28;20540;-84
2023/12/14 05:53:58;;;;;;;0.50;0.50;;;23.00;62.20;;;;;;4961890;28;20466;-83
2023/12/14 05:56:27;;;;;;;0.60;0.50;;;23.00;62.20;;;;;;4953924;28;20499;-83
2023/12/14 05:58:55;;;;;;;0.60;0.57;;;23.00;62.10;;;;;;4947663;28;20463;-83
2023/12/14 06:01:25;;;;;;;0.70;0.70;;;23.00;62.10;;;;;;4950407;28;20898;-86
2023/12/14 06:03:55;;;;;;;1.37;0.93;;;23.00;62.10;;;;;;4949795;28;20460;-83
2023/12/14 06:06:23;;;;;;;0.50;0.50;;;22.90;62.20;;;;;;4948930;28;20505;-86
2023/12/14 06:08:52;;;;;;;0.40;0.40;;;22.90;62.20;;;;;;4949184;28;20463;-82
2023/12/14 06:11:20;;;;;;;0.80;0.80;;;22.90;62.20;;;;;;4943551;28;20462;-84
2023/12/14 06:13:49;;;;;;;0.40;0.40;;;22.80;62.30;;;;;;4951036;28;20464;-83
2023/12/14 06:16:17;;;;;;;1.40;0.77;;;22.80;62.30;;;;;;4941613;28;20494;-88
2023/12/14 06:18:45;;;;;;;0.80;0.70;;;22.80;62.40;;;;;;4951262;28;20955;-82
2023/12/14 06:21:15;;;;;;;0.60;0.50;;;22.80;62.40;;;;;;4952366;28;20519;-86
2023/12/14 06:23:43;;;;;;;0.90;0.90;;;22.70;62.50;;;;;;4956595;28;20480;-86
2023/12/14 06:26:10;;;;;;;0.70;0.70;;;22.70;62.50;;;;;;4956667;28;21307;-83
2023/12/14 06:28:39;;;;;;;0.50;0.50;;;22.70;62.60;;;;;;4967081;28;20474;-83
2023/12/14 06:31:07;;;;;;;0.80;0.60;;;22.70;62.60;;;;;;4963519;28;21073;-85
2023/12/14 06:33:36;;;;;;;0.73;0.73;;;22.60;62.70;;;;;;4951722;28;20515;-88
2023/12/14 06:36:05;;;;;;;0.70;0.70;;;22.60;62.70;;;;;;4950588;28;20469;-84
2023/12/14 06:38:35;;;;;;;1.23;0.60;;;22.60;62.80;;;;;;4950770;28;20982;-82
2023/12/14 06:41:03;;;;;;;0.83;0.83;;;22.60;62.80;;;;;;4941188;28;20479;-85
2023/12/14 06:43:31;;;;;;;0.77;0.77;;;22.60;62.80;;;;;;4951741;28;20498;-82
2023/12/14 06:46:00;;;;;;;0.70;0.70;;;22.50;62.90;;;;;;4943913;29;20533;-84
2023/12/14 06:48:28;;;;;;;0.70;0.70;;;22.50;63.10;;;;;;4939482;29;20460;-82
2023/12/14 06:50:56;;;;;;;0.77;0.40;;;22.50;63.10;;;;;;4942829;28;20473;-89
2023/12/14 06:53:25;;;;;;;1.80;1.23;;;22.50;63.10;;;;;;4954881;28;20567;-82
2023/12/14 06:55:54;;;;;;;2.70;0.73;;;22.50;63.10;;;;;;4952547;28;20471;-82
2023/12/14 06:58:22;;;;;;;1.43;0.70;;;22.60;63.10;;;;;;4948378;29;20466;-84
2023/12/14 07:00:50;;;;;;;0.73;0.60;;;22.60;62.90;;;;;;4951367;28;20481;-91
2023/12/14 07:03:19;;;;;;;1.13;0.70;;;22.60;62.90;;;;;;4949067;28;20461;-82
2023/12/14 07:05:47;;;;;;;1.13;0.70;;;22.60;62.80;;;;;;4969570;28;20453;-82
2023/12/14 07:08:15;;;;;;;0.60;0.50;;;22.60;62.70;;;;;;4951001;28;20475;-84
2023/12/14 07:10:43;;;;;;;0.70;0.60;;;22.60;62.70;;;;;;4949967;28;20457;-82
2023/12/14 07:13:13;;;;;;;1.33;0.90;;;22.70;62.60;;;;;;4949490;29;20466;-82
2023/12/14 07:15:41;;;;;;;3.17;0.90;;;22.70;62.60;;;;;;4953230;28;20491;-82
2023/12/14 07:18:09;;;;;;;0.70;0.70;;;22.70;62.50;;;;;;4950008;28;20459;-82
2023/12/14 07:20:38;;;;;;;0.80;0.80;;;22.70;62.50;;;;;;4950920;28;20575;-81
2023/12/14 07:23:06;;;;;;;0.70;0.70;;;22.70;62.50;;;;;;4971997;28;20440;-82
2023/12/14 07:25:34;;;;;;;0.90;0.60;;;22.70;62.40;;;;;;4951590;29;20445;-82
2023/12/14 07:28:03;;;;;;;0.90;0.80;;;22.70;62.40;;;;;;4944233;29;20471;-82
2023/12/14 07:30:32;;;;;;;1.17;0.97;;;22.70;62.40;;;;;;4951915;29;20931;-84
2023/12/14 07:33:01;;;;;;;0.67;0.67;;;22.70;62.40;;;;;;4942534;29;20818;-83
2023/12/14 07:35:29;;;;;;;0.90;0.60;;;22.70;62.30;;;;;;4956512;28;20448;-82
2023/12/14 07:37:57;;;;;;;0.90;0.80;;;22.70;62.30;;;;;;4948586;29;21009;-88
2023/12/14 07:40:25;;;;;;;0.80;0.60;;;22.70;62.30;;;;;;4960330;28;20950;-85
2023/12/14 07:42:54;;;;;;;0.80;0.80;;;22.70;62.30;;;;;;4958544;28;20936;-82
2023/12/14 07:45:22;;;;;;;2.60;1.17;;;22.70;62.30;;;;;;4944070;28;20481;-81
2023/12/14 07:47:52;;;;;;;0.63;0.63;;;22.70;62.30;;;;;;4959539;28;20550;-83
2023/12/14 07:50:20;;;;;;;0.60;0.60;;;22.70;62.30;;;;;;4961892;28;20471;-82
2023/12/14 07:52:52;;;;;;;1.70;0.90;;;22.70;62.30;;;;;;4952126;28;20470;-82
2023/12/14 07:55:21;;;;;;;0.90;0.90;;;22.70;62.30;;;;;;4957891;28;20482;-83
2023/12/14 07:57:49;;;;;;;1.07;0.90;;;22.70;62.30;;;;;;4950026;28;20476;-90
2023/12/14 08:00:18;;;;;;;1.10;1.00;;;22.70;62.30;;;;;;4956449;28;20509;-86
2023/12/14 08:02:46;;;;;;;0.70;0.70;;;22.70;62.30;;;;;;4957707;28;20481;-82
2023/12/14 08:05:16;;;;;;;1.03;0.80;;;22.70;62.20;;;;;;4957811;28;20451;-82
2023/12/14 08:07:44;;;;;;;0.53;0.53;;;22.70;62.20;;;;;;4955425;28;20468;-82
2023/12/14 08:10:12;;;;;;;1.00;1.00;;;22.70;62.20;;;;;;4955487;28;20511;-88
2023/12/14 08:12:40;;;;;;;0.83;0.70;;;22.70;62.20;;;;;;4954585;28;20459;-82
2023/12/14 08:15:09;;;;;;;1.17;0.90;;;22.70;62.20;;;;;;4953290;28;20991;-82
2023/12/14 08:17:38;;;;;;;1.53;0.63;;;22.70;62.20;;;;;;4952974;28;20463;-84
2023/12/14 08:20:08;;;;;;;0.77;0.77;;;22.70;62.20;;;;;;4954408;29;20490;-83
2023/12/14 08:22:44;;;;;;;1.07;0.97;;;22.70;62.20;;;;;;4954667;28;20822;-82
2023/12/14 08:25:14;;;;;;;0.70;0.70;;;22.60;62.20;;;;;;4954155;29;20435;-82
2023/12/14 08:27:44;;;;;;;0.70;0.63;;;22.60;62.20;;;;;;4950579;28;20470;-82
2023/12/14 08:30:13;;;;;;;1.20;1.00;;;22.60;62.20;;;;;;4962894;28;20502;-82
2023/12/14 08:32:42;;;;;;;1.10;0.80;;;22.60;62.30;;;;;;4949951;28;20815;-82
2023/12/14 08:35:11;;;;;;;0.87;0.87;;;22.60;62.30;;;;;;4943810;28;20467;-82
2023/12/14 08:37:41;;;;;;;1.03;0.80;;;22.60;62.30;;;;;;4940298;29;20456;-82
2023/12/14 08:40:10;;;;;;;0.70;0.70;;;22.60;62.30;;;;;;4952483;29;20444;-83
2023/12/14 08:42:38;;;;;;;2.60;1.13;;;22.60;62.30;;;;;;4942624;28;20812;-82
2023/12/14 08:45:11;;;;;;;0.73;0.73;;;22.60;62.30;;;;;;4951180;29;20538;-83
2023/12/14 08:47:40;;;;;;;1.10;1.00;;;22.60;62.40;;;;;;4951031;29;20995;-82
2023/12/14 08:50:09;;;;;;;0.87;0.70;;;22.60;62.40;;;;;;4945863;28;20474;-82
2023/12/14 08:52:37;;;;;;;0.80;0.80;;;22.60;62.40;;;;;;4954787;28;20498;-86
2023/12/14 08:55:08;;;;;;;1.70;1.23;;;22.60;62.40;;;;;;4970281;28;20463;-84
2023/12/14 08:57:37;;;;;;;0.97;0.70;;;22.60;62.40;;;;;;4959574;28;20540;-82
2023/12/14 09:00:06;;;;;;;1.20;0.90;;;22.60;62.40;;;;;;4963566;28;20517;-85
2023/12/14 09:02:36;;;;;;;0.80;0.73;;;22.70;62.40;;;;;;4972116;28;20838;-82
2023/12/14 09:05:05;;;;;;;0.63;0.63;;;22.70;62.40;;;;;;4972190;28;20450;-82
2023/12/14 09:07:34;;;;;;;3.03;1.20;;;22.70;62.30;;;;;;4965053;28;20865;-82
2023/12/14 09:10:02;;;;;;;2.00;0.90;;;22.80;62.20;;;;;;4955608;28;20478;-82
2023/12/14 09:12:34;;;;;;;0.83;0.80;;;22.80;62.10;;;;;;4971864;28;20579;-82
2023/12/14 09:15:02;;;;;;;0.90;0.70;;;22.80;62.10;;;;;;4972681;28;20486;-83
2023/12/14 09:17:32;;;;;;;1.20;0.90;;;22.80;62.00;;;;;;4959776;28;20864;-87
2023/12/14 09:20:06;;;;;;;0.80;0.80;;;22.90;61.90;;;;;;4954793;28;20452;-86
2023/12/14 09:22:34;;;;;;;0.80;0.80;;;22.90;61.90;;;;;;4954036;28;20562;-84
2023/12/14 09:25:03;;;;;;;0.70;0.70;;;22.90;61.90;;;;;;4953573;28;20455;-82
2023/12/14 09:27:32;;;;;;;1.37;0.90;;;22.90;61.80;;;;;;4954219;28;20436;-83
2023/12/14 09:30:02;;;;;;;1.10;1.00;;;22.90;61.80;;;;;;4953976;29;20440;-82
2023/12/14 09:32:30;;;;;;;2.83;0.97;;;22.90;61.80;;;;;;4952614;28;20447;-82
2023/12/14 09:34:58;;;;;;;0.90;0.90;;;22.90;61.80;;;;;;4958971;28;20555;-82
2023/12/14 09:37:27;;;;;;;0.80;0.80;;;22.90;61.80;;;;;;4955832;28;21022;-82
2023/12/14 09:39:55;;;;;;;1.70;0.80;;;22.90;61.80;;;;;;4949149;29;20976;-82
2023/12/14 09:42:23;;;;;;;0.90;0.90;;;22.80;61.90;;;;;;4951148;29;20475;-87
2023/12/14 09:44:54;;;;;;;0.93;0.93;;;22.80;61.90;;;;;;4952291;29;20475;-86
2023/12/14 09:47:22;;;;;;;0.80;0.73;;;22.80;61.90;;;;;;4952453;29;20467;-82
2023/12/14 09:49:52;;;;;;;0.60;0.60;;;22.80;61.90;;;;;;4953079;28;20467;-82
2023/12/14 09:52:21;;;;;;;1.10;1.00;;;22.80;62.00;;;;;;4953444;28;20455;-84
2023/12/14 09:54:49;;;;;;;0.83;0.80;;;22.80;62.00;;;;;;4950470;28;20464;-82
2023/12/14 09:57:20;;;;;;;0.77;0.77;;;22.80;62.00;;;;;;4953460;29;20441;-82
2023/12/14 09:59:54;;;;;;;0.67;0.67;;;22.80;62.10;;;;;;4953665;28;20459;-82
2023/12/14 10:02:26;;;;;;;0.87;0.87;;;22.80;62.10;;;;;;4934200;29;20472;-84
2023/12/14 10:04:54;;;;;;;1.13;1.03;;;22.80;62.10;;;;;;4943143;28;20449;-82
2023/12/14 10:07:23;;;;;;;0.70;0.70;;;22.80;62.10;;;;;;4972949;28;20446;-82
2023/12/14 10:09:52;;;;;;;0.70;0.70;;;22.90;62.10;;;;;;4957490;28;20516;-89
2023/12/14 10:12:22;;;;;;;1.00;0.93;;;22.90;62.00;;;;;;4948565;28;21185;-82
2023/12/14 10:15:06;;;;;;;1.10;0.97;;;22.90;62.00;;;;;;4954263;28;20519;-84
2023/12/14 10:17:34;;;;;;;0.80;0.80;;;22.90;61.90;;;;;;4952652;29;20452;-85
2023/12/14 10:20:04;;;;;;;0.77;0.77;;;23.00;61.90;;;;;;4955584;28;20449;-82
2023/12/14 10:22:32;;;;;;;0.70;0.70;;;23.00;61.80;;;;;;4969224;28;20569;-82
2023/12/14 10:25:01;;;;;;;0.80;0.80;;;23.10;61.60;;;;;;4956710;28;20461;-82
2023/12/14 10:27:30;;;;;;;3.13;0.80;;;23.10;61.50;;;;;;4939425;29;20466;-82
2023/12/14 10:29:59;;;;;;;1.23;1.13;;;23.20;61.40;;;;;;4950376;28;20467;-81
2023/12/14 10:32:29;;;;;;;0.97;0.73;;;23.20;61.30;;;;;;4953618;28;20965;-87
2023/12/14 10:34:58;;;;;;;0.70;0.70;;;23.20;61.30;;;;;;4953596;28;20532;-85
2023/12/14 10:37:27;;;;;;;1.30;0.83;;;23.20;61.30;;;;;;4953970;28;20451;-82
2023/12/14 10:39:56;;;;;;;0.80;0.80;;;23.20;61.30;;;;;;4954299;28;20459;-84
2023/12/14 10:42:27;;;;;;;0.80;0.80;;;23.20;61.30;;;;;;4956117;29;20876;-82
2023/12/14 10:44:57;;;;;;;0.97;0.87;;;23.20;61.30;;;;;;4955126;29;20453;-86
2023/12/14 10:47:47;;;;;;;0.80;0.70;;;23.10;61.30;;;;;;4956990;28;20470;-82
2023/12/14 10:50:17;;;;;;;0.80;0.80;;;23.10;61.40;;;;;;4954937;28;20464;-82
2023/12/14 10:52:46;;;;;;;0.90;0.90;;;23.10;61.40;;;;;;4956558;28;20440;-81
2023/12/14 10:55:23;;;;;;;0.70;0.70;;;23.10;61.40;;;;;;4956404;28;20428;-81
2023/12/14 10:57:53;;;;;;;0.70;0.70;;;23.10;61.50;;;;;;4961897;28;20559;-82
2023/12/14 11:00:21;;;;;;;1.23;0.87;;;23.10;61.50;;;;;;4955243;28;20448;-82
2023/12/14 11:02:52;;;;;;;0.67;0.67;;;23.00;61.60;;;;;;4957290;28;20820;-82
2023/12/14 11:05:29;;;;;;;0.97;0.97;;;23.00;61.60;;;;;;4956018;28;20455;-82
2023/12/14 11:08:03;;;;;;;0.83;0.83;;;23.00;61.60;;;;;;4967888;28;20467;-84
2023/12/14 11:10:38;;;;;;;0.80;0.80;;;23.00;61.70;;;;;;4955108;28;20449;-82
2023/12/14 11:13:13;;;;;;;0.90;0.80;;;23.00;61.70;;;;;;4961053;28;20842;-82
2023/12/14 11:15:50;;;;;;;0.67;0.67;;;23.00;61.70;;;;;;4937291;29;20507;-81
2023/12/14 11:18:24;;;;;;;0.80;0.80;;;23.00;61.70;;;;;;4939383;28;20478;-88
2023/12/14 11:21:00;;;;;;;0.90;0.73;;;23.00;61.70;;;;;;4951188;28;20454;-83
2023/12/14 11:23:31;;;;;;;0.80;0.80;;;23.10;61.70;;;;;;4951285;28;20484;-85
2023/12/14 11:26:03;;;;;;;0.83;0.83;;;23.10;61.60;;;;;;4964326;28;20991;-84
2023/12/14 11:28:33;;;;;;;0.80;0.80;;;23.10;61.60;;;;;;4966527;28;20796;-83
2023/12/14 11:31:02;;;;;;;1.00;0.93;;;23.10;61.50;;;;;;4958487;28;20494;-87
2023/12/14 11:33:33;;;;;;;1.03;0.93;;;23.20;61.50;;;;;;4962728;28;20514;-82
2023/12/14 11:36:04;;;;;;;0.70;0.70;;;23.20;61.40;;;;;;4958977;28;20460;-82
2023/12/14 11:38:33;;;;;;;0.70;0.70;;;23.20;61.40;;;;;;4961237;28;20798;-85
2023/12/14 11:41:02;;;;;;;0.70;0.70;;;23.20;61.30;;;;;;4968812;28;20520;-84
2023/12/14 11:43:30;;;;;;;0.90;0.90;;;23.20;61.30;;;;;;4962679;28;20472;-82
2023/12/14 11:45:58;;;;;;;0.97;0.87;;;23.20;61.30;;;;;;4950784;28;20478;-85
2023/12/14 11:48:26;;;;;;;0.93;0.83;;;23.20;61.30;;;;;;4948280;29;20448;-82
2023/12/14 11:50:56;;;;;;;0.80;0.80;;;23.20;61.30;;;;;;4953008;28;20472;-82
2023/12/14 11:53:25;;;;;;;0.90;0.80;;;23.20;61.30;;;;;;4961046;28;20475;-82
2023/12/14 11:55:53;;;;;;;2.27;1.57;;;23.20;61.30;;;;;;4948913;28;20483;-83
2023/12/14 11:58:21;;;;;;;1.40;0.90;;;23.20;61.20;;;;;;4952368;28;20460;-82
2023/12/14 12:00:50;;;;;;;1.30;1.20;;;23.20;61.20;;;;;;4957584;28;20460;-81
2023/12/14 12:03:19;;;;;;;1.00;0.90;;;23.20;61.30;;;;;;4955150;28;20487;-89
2023/12/14 12:05:49;;;;;;;0.93;0.83;;;23.20;61.30;;;;;;4958516;28;20452;-83
2023/12/14 12:08:21;;;;;;;1.37;0.60;;;23.10;61.40;;;;;;4960202;28;20460;-82
2023/12/14 12:10:50;;;;;;;0.90;0.90;;;23.10;61.40;;;;;;4960046;28;20464;-83
2023/12/14 12:13:20;;;;;;;0.87;0.87;;;23.10;61.50;;;;;;4961414;28;20952;-86
2023/12/14 12:15:49;;;;;;;2.07;1.00;;;23.00;61.50;;;;;;4954979;29;20495;-82
2023/12/14 12:18:18;;;;;;;0.83;0.83;;;23.00;61.60;;;;;;4942617;28;20459;-82
2023/12/14 12:20:47;;;;;;;1.20;1.20;;;23.00;61.60;;;;;;4947140;28;20461;-82
2023/12/14 12:23:16;;;;;;;0.90;0.90;;;23.00;61.70;;;;;;4951107;28;20483;-82
2023/12/14 12:25:46;;;;;;;0.70;0.70;;;23.00;61.70;;;;;;4944228;29;20945;-82
2023/12/14 12:28:14;;;;;;;1.70;0.80;;;23.00;61.70;;;;;;4950627;29;20449;-82
2023/12/14 12:30:42;;;;;;;0.93;0.93;;;23.10;61.60;;;;;;4938140;29;20448;-83
2023/12/14 12:33:11;;;;;;;0.80;0.80;;;23.10;61.50;;;;;;4944083;28;20470;-82
2023/12/14 12:35:39;;;;;;;0.80;0.73;;;23.20;61.50;;;;;;4963103;28;20499;-81
2023/12/14 12:38:08;;;;;;;0.70;0.70;;;23.20;61.40;;;;;;4950511;28;20471;-82
2023/12/14 12:40:36;;;;;;;1.10;0.97;;;23.20;61.40;;;;;;4957285;28;20820;-82
2023/12/14 12:43:05;;;;;;;0.83;0.83;;;23.20;61.40;;;;;;4967206;28;20456;-82
2023/12/14 12:45:35;;;;;;;1.30;1.20;;;23.30;61.30;;;;;;4946455;29;20530;-82
2023/12/14 12:48:05;;;;;;;0.90;0.90;;;23.40;61.00;;;;;;4948190;28;20448;-82
2023/12/14 12:50:34;;;;;;;1.53;1.27;;;23.50;60.80;;;;;;4962742;28;20481;-81
2023/12/14 12:53:03;;;;;;;0.90;0.90;;;23.50;60.70;;;;;;4946840;29;20467;-82
2023/12/14 12:55:31;;;;;;;0.70;0.70;;;23.50;60.70;;;;;;4943433;29;20463;-82
2023/12/14 12:58:04;;;;;;;1.33;0.90;;;23.50;60.70;;;;;;4944466;28;20468;-83